Wilson Lista — 8PRW — position and weather

sailwx.info

Track history (hours):
 
Tides and Currents Weather Stations Pressure Air Temp Water Temp Dewpoint Dewpoint Depression Visibility Wind Speed Wind Dir Waves Ship Positions

Wilson Lista

Last reported at 2015-Aug-01 20:17 UTC. Time now 2015-Aug-01 22:17 UTC.
Position N 52°02' E 001°09'.

Length 88 m; draft 5.5 m.

Type: Cargo ship. MMSI: 314188000.

Date/timePositionNaut miles runAvg speedWind from/ knotsBaromVisibWave heightAir tempDewpointWater temp
2015-Aug-01 20:17N 52°02' E 001°09'0 0.0
2015-Aug-01 19:25N 52°02' E 001°09'0 0.0
2015-Aug-01 18:19N 52°02' E 001°09'0 0.0
2015-Aug-01 17:30N 52°02' E 001°09'0 0.0
2015-Aug-01 13:22N 52°02' E 001°09'0 0.0
2015-Aug-01 12:31N 52°02' E 001°09'0 0.0
2015-Aug-01 11:25N 52°02' E 001°09'0 0.0
2015-Aug-01 10:09N 52°02' E 001°09'0 0.0
2015-Aug-01 07:05N 52°02' E 001°09'0 0.0
2015-Aug-01 06:32N 52°02' E 001°09'0 0.0
2015-Aug-01 05:31N 52°02' E 001°09'0 0.0
2015-Aug-01 04:31N 52°02' E 001°09'0 0.0
2015-Aug-01 03:33N 52°02' E 001°09'0 0.0
2015-Aug-01 02:33N 52°02' E 001°09'0 0.0
2015-Aug-01 01:30N 52°02' E 001°09'0 0.0
2015-Aug-01 00:32N 52°02' E 001°09'0 0.0
2015-Jul-31 23:32N 52°02' E 001°09'0 0.0
2015-Jul-31 22:31N 52°02' E 001°09'0 0.0
2015-Jul-31 19:21N 52°02' E 001°09'0 0.0
2015-Jul-31 18:33N 52°02' E 001°09'0 0.0
2015-Jul-31 17:23N 52°02' E 001°09'0 0.0
2015-Jul-31 16:32N 52°02' E 001°09'0 0.0
2015-Jul-31 15:31N 52°02' E 001°09'0 0.0
2015-Jul-31 14:28N 52°02' E 001°09'0 0.0
2015-Jul-31 12:27N 52°02' E 001°09'0 0.0
2015-Jul-31 11:29N 52°02' E 001°09'0 0.0
2015-Jul-31 10:32N 52°02' E 001°09'0 0.0
2015-Jul-31 09:32N 52°02' E 001°09'0 0.0
2015-Jul-31 08:25N 52°02' E 001°09'0 0.0
2015-Jul-31 07:28N 52°02' E 001°09'0 0.0
2015-Jul-31 06:27N 52°02' E 001°09'0 0.0
2015-Jul-31 05:30N 52°02' E 001°09'0 0.0
2015-Jul-31 04:32N 52°02' E 001°09'0 0.0
2015-Jul-31 03:33N 52°02' E 001°09'5 4.7
2015-Jul-31 02:33N 51°60' E 001°16'6 6.3
2015-Jul-31 01:34N 51°56' E 001°24'7 6.5
2015-Jul-31 00:34N 51°53' E 001°34'8 8.2
2015-Jul-30 23:33N 51°51' E 001°47'7 7.0
2015-Jul-30 22:34N 51°51' E 001°58'68 8.5
2015-Jul-30 14:33N 52°02' E 003°46'7 7.2
2015-Jul-30 13:34N 52°02' E 003°58'8 7.9
2015-Jul-30 12:34N 51°58' E 004°09'9 8.6
2015-Jul-30 11:33N 51°54' E 004°22'2 2.0
2015-Jul-30 10:32N 51°54' E 004°25'0 0.0
2015-Jul-30 09:32N 51°54' E 004°25'0 0.0
2015-Jul-30 08:31N 51°54' E 004°25'0 0.0
2015-Jul-30 07:31N 51°54' E 004°25'0 0.0
2015-Jul-30 06:33N 51°54' E 004°25'0 0.0
2015-Jul-30 05:30N 51°54' E 004°25'0 0.0
2015-Jul-30 04:33N 51°54' E 004°25'0 0.0
2015-Jul-30 03:32N 51°54' E 004°25'0 0.0
2015-Jul-30 02:32N 51°54' E 004°25'0 0.0
2015-Jul-30 01:31N 51°54' E 004°25'0 0.0
2015-Jul-30 00:31N 51°54' E 004°25'0 0.0
2015-Jul-29 23:33N 51°54' E 004°25'0 0.0
2015-Jul-29 22:33N 51°54' E 004°25'1 0.9
2015-Jul-29 21:33N 51°54' E 004°24'8 8.0
2015-Jul-29 20:33N 51°56' E 004°12'8 8.4
2015-Jul-29 19:33N 52°01' E 004°00'1010.0
2015-Jul-29 18:33N 52°11' E 004°03'10 9.6
2015-Jul-29 17:33N 52°18' E 004°14'8 8.5
2015-Jul-29 16:33N 52°23' E 004°24'7 6.7
2015-Jul-29 15:34N 52°28' E 004°32'3 3.1
2015-Jul-29 14:33N 52°28' E 004°37'8 7.8
2015-Jul-29 13:33N 52°25' E 004°49'0 0.1
2015-Jul-29 12:32N 52°25' E 004°49'0 0.0
2015-Jul-29 11:33N 52°25' E 004°49'0 0.0
2015-Jul-29 10:33N 52°25' E 004°49'0 0.0
2015-Jul-29 09:31N 52°25' E 004°49'0 0.0
2015-Jul-29 08:30N 52°25' E 004°49'0 0.0
2015-Jul-29 07:33N 52°25' E 004°49'0 0.0
2015-Jul-29 06:32N 52°25' E 004°49'0 0.0
2015-Jul-29 05:32N 52°25' E 004°49'0 0.0
2015-Jul-29 04:31N 52°25' E 004°49'0 0.0
2015-Jul-29 03:33N 52°25' E 004°49'0 0.0
2015-Jul-29 02:32N 52°25' E 004°49'0 0.0
2015-Jul-29 01:32N 52°25' E 004°49'0 0.0
2015-Jul-29 00:31N 52°25' E 004°49'0 0.0
2015-Jul-28 23:33N 52°25' E 004°49'0 0.0
2015-Jul-28 22:34N 52°25' E 004°49'0 0.0
2015-Jul-28 21:33N 52°25' E 004°49'0 0.0
2015-Jul-28 20:32N 52°25' E 004°49'0 0.0
2015-Jul-28 19:32N 52°25' E 004°49'0 0.0
2015-Jul-28 18:31N 52°25' E 004°49'0 0.0
2015-Jul-28 17:33N 52°25' E 004°49'0 0.0
2015-Jul-28 16:25N 52°25' E 004°49'0 0.0
2015-Jul-28 15:31N 52°25' E 004°49'0 0.0
2015-Jul-28 14:34N 52°25' E 004°49'0 0.0
2015-Jul-28 13:33N 52°25' E 004°49'0 0.0
2015-Jul-28 12:33N 52°25' E 004°49'0 0.0
2015-Jul-28 11:34N 52°25' E 004°49'0 0.0
2015-Jul-28 10:34N 52°25' E 004°49'0 0.0
2015-Jul-28 09:33N 52°25' E 004°49'0 0.0
2015-Jul-28 08:33N 52°25' E 004°49'0 0.0
2015-Jul-28 07:33N 52°25' E 004°49'0 0.0
2015-Jul-28 06:33N 52°25' E 004°49'0 0.0
2015-Jul-28 05:31N 52°25' E 004°49'0 0.0
2015-Jul-28 04:34N 52°25' E 004°49'0 0.0
2015-Jul-28 03:32N 52°25' E 004°49'0 0.0
2015-Jul-28 02:34N 52°25' E 004°49'0 0.0
2015-Jul-28 01:33N 52°25' E 004°49'0 0.0
2015-Jul-28 00:31N 52°25' E 004°49'1 1.1
2015-Jul-27 23:34N 52°25' E 004°48'7 7.4
2015-Jul-27 22:33N 52°28' E 004°36'3 2.9
2015-Jul-27 21:34N 52°28' E 004°31'9 9.3
2015-Jul-27 20:33N 52°29' E 004°16'8 7.9
2015-Jul-27 19:31N 52°34' E 004°06'8 8.7
2015-Jul-27 18:33N 52°42' E 004°01'  
2015-Jul-24 04:20N 63°34' E 009°23'810.3
2015-Jul-24 03:33N 63°39' E 009°38'8 7.8
2015-Jul-24 02:32N 63°33' E 009°52'8 8.0
2015-Jul-24 01:33N 63°29' E 010°07'10 9.8
2015-Jul-24 00:33N 63°34' E 010°26'10 9.8
2015-Jul-23 23:33N 63°40' E 010°44'10 9.7
2015-Jul-23 22:33N 63°46' E 011°00'  
Track history (hours):
 
Tides and Currents Weather Stations Pressure Air Temp Water Temp Dewpoint Dewpoint Depression Visibility Wind Speed Wind Dir Waves Ship Positions

Wilson Lista

Last reported at 2015-Aug-01 20:17 UTC. Time now 2015-Aug-01 22:17 UTC.
Position N 52°02' E 001°09'.

Length 88 m; draft 5.5 m.

Type: Cargo ship. MMSI: 314188000.

Date/timePositionNaut miles runAvg speedWind from/ knotsBaromVisibWave heightAir tempDewpointWater temp
2015-Aug-01 20:17N 52°02' E 001°09'0 0.0
2015-Aug-01 19:25N 52°02' E 001°09'0 0.0
2015-Aug-01 18:19N 52°02' E 001°09'0 0.0
2015-Aug-01 17:30N 52°02' E 001°09'0 0.0
2015-Aug-01 13:22N 52°02' E 001°09'0 0.0
2015-Aug-01 12:31N 52°02' E 001°09'0 0.0
2015-Aug-01 11:25N 52°02' E 001°09'0 0.0
2015-Aug-01 10:09N 52°02' E 001°09'0 0.0
2015-Aug-01 07:05N 52°02' E 001°09'0 0.0
2015-Aug-01 06:32N 52°02' E 001°09'0 0.0
2015-Aug-01 05:31N 52°02' E 001°09'0 0.0
2015-Aug-01 04:31N 52°02' E 001°09'0 0.0
2015-Aug-01 03:33N 52°02' E 001°09'0 0.0
2015-Aug-01 02:33N 52°02' E 001°09'0 0.0
2015-Aug-01 01:30N 52°02' E 001°09'0 0.0
2015-Aug-01 00:32N 52°02' E 001°09'0 0.0
2015-Jul-31 23:32N 52°02' E 001°09'0 0.0
2015-Jul-31 22:31N 52°02' E 001°09'0 0.0
2015-Jul-31 19:21N 52°02' E 001°09'0 0.0
2015-Jul-31 18:33N 52°02' E 001°09'0 0.0
2015-Jul-31 17:23N 52°02' E 001°09'0 0.0
2015-Jul-31 16:32N 52°02' E 001°09'0 0.0
2015-Jul-31 15:31N 52°02' E 001°09'0 0.0
2015-Jul-31 14:28N 52°02' E 001°09'0 0.0
2015-Jul-31 12:27N 52°02' E 001°09'0 0.0
2015-Jul-31 11:29N 52°02' E 001°09'0 0.0
2015-Jul-31 10:32N 52°02' E 001°09'0 0.0
2015-Jul-31 09:32N 52°02' E 001°09'0 0.0
2015-Jul-31 08:25N 52°02' E 001°09'0 0.0
2015-Jul-31 07:28N 52°02' E 001°09'0 0.0
2015-Jul-31 06:27N 52°02' E 001°09'0 0.0
2015-Jul-31 05:30N 52°02' E 001°09'0 0.0
2015-Jul-31 04:32N 52°02' E 001°09'0 0.0
2015-Jul-31 03:33N 52°02' E 001°09'5 4.7
2015-Jul-31 02:33N 51°60' E 001°16'6 6.3
2015-Jul-31 01:34N 51°56' E 001°24'7 6.5
2015-Jul-31 00:34N 51°53' E 001°34'8 8.2
2015-Jul-30 23:33N 51°51' E 001°47'7 7.0
2015-Jul-30 22:34N 51°51' E 001°58'68 8.5
2015-Jul-30 14:33N 52°02' E 003°46'7 7.2
2015-Jul-30 13:34N 52°02' E 003°58'8 7.9
2015-Jul-30 12:34N 51°58' E 004°09'9 8.6
2015-Jul-30 11:33N 51°54' E 004°22'2 2.0
2015-Jul-30 10:32N 51°54' E 004°25'0 0.0
2015-Jul-30 09:32N 51°54' E 004°25'0 0.0
2015-Jul-30 08:31N 51°54' E 004°25'0 0.0
2015-Jul-30 07:31N 51°54' E 004°25'0 0.0
2015-Jul-30 06:33N 51°54' E 004°25'0 0.0
2015-Jul-30 05:30N 51°54' E 004°25'0 0.0
2015-Jul-30 04:33N 51°54' E 004°25'0 0.0
2015-Jul-30 03:32N 51°54' E 004°25'0 0.0
2015-Jul-30 02:32N 51°54' E 004°25'0 0.0
2015-Jul-30 01:31N 51°54' E 004°25'0 0.0
2015-Jul-30 00:31N 51°54' E 004°25'0 0.0
2015-Jul-29 23:33N 51°54' E 004°25'0 0.0
2015-Jul-29 22:33N 51°54' E 004°25'1 0.9
2015-Jul-29 21:33N 51°54' E 004°24'8 8.0
2015-Jul-29 20:33N 51°56' E 004°12'8 8.4
2015-Jul-29 19:33N 52°01' E 004°00'1010.0
2015-Jul-29 18:33N 52°11' E 004°03'10 9.6
2015-Jul-29 17:33N 52°18' E 004°14'8 8.5
2015-Jul-29 16:33N 52°23' E 004°24'7 6.7
2015-Jul-29 15:34N 52°28' E 004°32'3 3.1
2015-Jul-29 14:33N 52°28' E 004°37'8 7.8
2015-Jul-29 13:33N 52°25' E 004°49'0 0.1
2015-Jul-29 12:32N 52°25' E 004°49'0 0.0
2015-Jul-29 11:33N 52°25' E 004°49'0 0.0
2015-Jul-29 10:33N 52°25' E 004°49'0 0.0
2015-Jul-29 09:31N 52°25' E 004°49'0 0.0
2015-Jul-29 08:30N 52°25' E 004°49'0 0.0
2015-Jul-29 07:33N 52°25' E 004°49'0 0.0
2015-Jul-29 06:32N 52°25' E 004°49'0 0.0
2015-Jul-29 05:32N 52°25' E 004°49'0 0.0
2015-Jul-29 04:31N 52°25' E 004°49'0 0.0
2015-Jul-29 03:33N 52°25' E 004°49'0 0.0
2015-Jul-29 02:32N 52°25' E 004°49'0 0.0
2015-Jul-29 01:32N 52°25' E 004°49'0 0.0
2015-Jul-29 00:31N 52°25' E 004°49'0 0.0
2015-Jul-28 23:33N 52°25' E 004°49'0 0.0
2015-Jul-28 22:34N 52°25' E 004°49'0 0.0
2015-Jul-28 21:33N 52°25' E 004°49'0 0.0
2015-Jul-28 20:32N 52°25' E 004°49'0 0.0
2015-Jul-28 19:32N 52°25' E 004°49'0 0.0
2015-Jul-28 18:31N 52°25' E 004°49'0 0.0
2015-Jul-28 17:33N 52°25' E 004°49'0 0.0
2015-Jul-28 16:25N 52°25' E 004°49'0 0.0
2015-Jul-28 15:31N 52°25' E 004°49'0 0.0
2015-Jul-28 14:34N 52°25' E 004°49'0 0.0
2015-Jul-28 13:33N 52°25' E 004°49'0 0.0
2015-Jul-28 12:33N 52°25' E 004°49'0 0.0
2015-Jul-28 11:34N 52°25' E 004°49'0 0.0
2015-Jul-28 10:34N 52°25' E 004°49'0 0.0
2015-Jul-28 09:33N 52°25' E 004°49'0 0.0
2015-Jul-28 08:33N 52°25' E 004°49'0 0.0
2015-Jul-28 07:33N 52°25' E 004°49'0 0.0
2015-Jul-28 06:33N 52°25' E 004°49'0 0.0
2015-Jul-28 05:31N 52°25' E 004°49'0 0.0
2015-Jul-28 04:34N 52°25' E 004°49'0 0.0
2015-Jul-28 03:32N 52°25' E 004°49'0 0.0
2015-Jul-28 02:34N 52°25' E 004°49'0 0.0
2015-Jul-28 01:33N 52°25' E 004°49'0 0.0
2015-Jul-28 00:31N 52°25' E 004°49'1 1.1
2015-Jul-27 23:34N 52°25' E 004°48'7 7.4
2015-Jul-27 22:33N 52°28' E 004°36'3 2.9
2015-Jul-27 21:34N 52°28' E 004°31'9 9.3
2015-Jul-27 20:33N 52°29' E 004°16'8 7.9
2015-Jul-27 19:31N 52°34' E 004°06'8 8.7
2015-Jul-27 18:33N 52°42' E 004°01'  
2015-Jul-24 04:20N 63°34' E 009°23'810.3
2015-Jul-24 03:33N 63°39' E 009°38'8 7.8
2015-Jul-24 02:32N 63°33' E 009°52'8 8.0
2015-Jul-24 01:33N 63°29' E 010°07'10 9.8
2015-Jul-24 00:33N 63°34' E 010°26'10 9.8
2015-Jul-23 23:33N 63°40' E 010°44'10 9.7
2015-Jul-23 22:33N 63°46' E 011°00'  

Dump ship's entire track history